PANT

Details ICAO PANT (ANN)
Name ANNETTE ISLAND
Region USA (Alaska)
Timezone America/Juneau (UTC-9.0)
Plans Departing 8
Arriving 14
Stats Elevation 119 ft / 36 m (AMSL)
Location 55.039538° -131.572274°
Runways 2
Magnetic Variation 18.453° E
Sunrise 2017-12-15 17:07:06 UTC / 2017-12-15 08:07:06 Local
Sunset 2017-12-16 00:18:54 UTC / 2017-12-15 15:18:54 Local
Advertisement - Login to hide

Runways

ID Width Length Bearing (true) Bearing (mag) Surface Threshold Offset Overrun Length
02 150 ft / 46 m 5,713 ft / 1,741 m 41.55° 23.10° Gravel 0 ft / 0 m 0 ft / 0 m
12 150 ft / 46 m 7,481 ft / 2,280 m 147.74° 129.29° Asphalt 0 ft / 0 m 0 ft / 0 m
20 150 ft / 46 m 5,713 ft / 1,741 m 221.57° 203.12° Gravel 0 ft / 0 m 0 ft / 0 m
30 150 ft / 46 m 7,481 ft / 2,280 m 327.75° 309.30° Asphalt 0 ft / 0 m 0 ft / 0 m

Map

Weather


0- 5 10 15 20 25 30 35+ Temperature / ° C

Clouds and Precipitation
Forecast for 2017-12-15 18:00 UTC. Updated an hour ago

Ground ~20,000 ft ~40,000 ft Winds

METAR

PANT 151553Z AUTO 24005KT 10SM FEW028 BKN080 OVC100 05/04 A3006 RMK AO2 RAB17E27 SLP182 P0000 T00500039 TSNO

TAF

Not found

Frequencies

Recorded 135.75 MHz ASOS
Unicom 122.90 MHz CTAF
Warning: Do not use this data for real-world aviation or navigation. No guarantee of current accuracy is given.